Terminal Aerodrome Forecast
Issued by NWS

Home | Current Version | Previous Version | Text Only | Print | Product List | Glossary On
Versions: 1 2 3 4 5 6 7 8 9 10 11 12 13
000
FTUS42 TJSJ 050037 CCA
TAFJBQ
TAF COR
TJBQ 050037Z 0500/0524 09013G19KT P6SM FEW020 SCT035
     FM050200 10010KT P6SM FEW040
     FM050900 11004KT P6SM VCSH SCT025
     FM051400 07015KT P6SM SCT025 SCT040
     FM052200 09010KT P6SM FEW030 SCT070
      AMD NOT SKED 0502/0511=

USA.gov is the U.S. government's official web portal to all federal, state and local government web resources and services.